< < Back
Terminal Aerodrome Forecast


Current Version              Previous Versions:   1  2  3  4  5  6  7  8  9  

Terminal Aerodrome Forecast

511
FTUS44 KMRX 300526
TAFCHA
TAF
KCHA 300526Z 3006/0106 00000KT P6SM SKC
     FM300900 00000KT 2SM BR SCT005
     FM301300 VRB02KT 5SM BR FEW007
     FM301400 32004KT P6SM SCT250
     FM010100 00000KT P6SM SKC=



Latest METAR

028
SAUS80 KWBC 301200 RRA
MTRCHA
METAR KCHA 301153Z 00000KT 1/8SM FG VV001 17/16 A2999 RMK AO2 SLP148
T01670156 10183 20161 53008


USA.gov is the U.S. government's official web portal to all federal, state and local government web resources and services.